sensor_id;sensor_type;location;lat;lon;timestamp;pressure;altitude;pressure_sealevel;temperature;humidity
60725;BME280;59881;36.722;-4.462;2023-06-14T08:09:55;100559.50;;;39.80;22.10
60725;BME280;59881;36.722;-4.462;2023-06-14T08:12:20;100368.53;;;39.27;21.52
60725;BME280;59881;36.722;-4.462;2023-06-14T08:14:46;100378.63;;;39.32;21.46
60725;BME280;59881;36.722;-4.462;2023-06-14T08:17:11;100489.22;;;40.24;21.42
60725;BME280;59881;36.722;-4.462;2023-06-14T08:19:37;100493.44;;;40.21;21.03
60725;BME280;59881;36.722;-4.462;2023-06-14T08:22:02;100582.47;;;41.24;20.79
60725;BME280;59881;36.722;-4.462;2023-06-14T08:24:29;100573.19;;;41.79;21.23
60725;BME280;59881;36.722;-4.462;2023-06-14T08:26:54;100312.47;;;40.57;20.40
60725;BME280;59881;36.722;-4.462;2023-06-14T08:29:21;100446.03;;;41.42;19.61
60725;BME280;59881;36.722;-4.462;2023-06-14T08:31:47;100234.84;;;40.58;19.15
60725;BME280;59881;36.722;-4.462;2023-06-14T08:34:13;100597.22;;;42.94;18.69
60725;BME280;59881;36.722;-4.462;2023-06-14T08:36:39;100240.44;;;40.67;18.09
60725;BME280;59881;36.722;-4.462;2023-06-14T08:39:05;100496.75;;;41.91;18.49
60725;BME280;59881;36.722;-4.462;2023-06-14T08:41:30;100370.72;;;40.91;18.72
60725;BME280;59881;36.722;-4.462;2023-06-14T08:43:56;100477.75;;;41.22;18.88
60725;BME280;59881;36.722;-4.462;2023-06-14T08:46:25;100368.97;;;40.73;19.28
60725;BME280;59881;36.722;-4.462;2023-06-14T08:48:55;100584.88;;;42.61;19.01
60725;BME280;59881;36.722;-4.462;2023-06-14T08:51:22;100500.78;;;42.08;18.12
60725;BME280;59881;36.722;-4.462;2023-06-14T08:53:55;100573.34;;;42.67;18.21
60725;BME280;59881;36.722;-4.462;2023-06-14T08:56:25;100597.78;;;43.66;17.91
60725;BME280;59881;36.722;-4.462;2023-06-14T08:58:51;100095.47;;;41.27;17.59
60725;BME280;59881;36.722;-4.462;2023-06-14T09:01:17;100573.28;;;44.80;17.88
60725;BME280;59881;36.722;-4.462;2023-06-14T09:03:44;100574.31;;;45.26;16.33
60725;BME280;59881;36.722;-4.462;2023-06-14T09:06:11;100604.47;;;45.78;16.77
60725;BME280;59881;36.722;-4.462;2023-06-14T09:08:43;100516.78;;;45.72;15.00
60725;BME280;59881;36.722;-4.462;2023-06-14T09:11:16;100574.25;;;47.37;14.61
60725;BME280;59881;36.722;-4.462;2023-06-14T09:13:45;100474.56;;;47.50;14.41
60725;BME280;59881;36.722;-4.462;2023-06-14T09:16:11;100278.97;;;46.19;13.98
60725;BME280;59881;36.722;-4.462;2023-06-14T09:18:38;100031.09;;;45.18;14.03
60725;BME280;59881;36.722;-4.462;2023-06-14T09:21:07;100571.03;;;48.90;13.53
60725;BME280;59881;36.722;-4.462;2023-06-14T09:23:37;100494.06;;;47.94;15.04
60725;BME280;59881;36.722;-4.462;2023-06-14T09:26:16;100570.19;;;47.62;15.92
60725;BME280;59881;36.722;-4.462;2023-06-14T09:28:46;100588.38;;;46.66;16.62
60725;BME280;59881;36.722;-4.462;2023-06-14T09:31:17;100519.56;;;45.72;16.28
60725;BME280;59881;36.722;-4.462;2023-06-14T09:33:45;100532.19;;;44.65;17.92
60725;BME280;59881;36.722;-4.462;2023-06-14T09:36:24;100577.41;;;43.45;19.63
60725;BME280;59881;36.722;-4.462;2023-06-14T09:38:57;100566.31;;;43.36;18.43
60725;BME280;59881;36.722;-4.462;2023-06-14T09:41:40;100603.09;;;41.76;20.61
60725;BME280;59881;36.722;-4.462;2023-06-14T09:44:08;100329.84;;;38.67;22.31
60725;BME280;59881;36.722;-4.462;2023-06-14T09:46:35;100575.41;;;39.50;22.91
60725;BME280;59881;36.722;-4.462;2023-06-14T09:49:02;100329.63;;;38.63;22.68
60725;BME280;59881;36.722;-4.462;2023-06-14T09:51:28;100575.19;;;39.84;22.36
60725;BME280;59881;36.722;-4.462;2023-06-14T09:54:02;100570.16;;;39.67;22.11
60725;BME280;59881;36.722;-4.462;2023-06-14T09:56:35;100580.63;;;41.19;20.89
60725;BME280;59881;36.722;-4.462;2023-06-14T09:59:04;100565.28;;;42.48;19.66
60725;BME280;59881;36.722;-4.462;2023-06-14T10:01:31;100564.81;;;40.09;19.89
60725;BME280;59881;36.722;-4.462;2023-06-14T10:04:04;100543.97;;;39.13;22.70
60725;BME280;59881;36.722;-4.462;2023-06-14T10:06:31;100516.81;;;39.44;21.28
60725;BME280;59881;36.722;-4.462;2023-06-14T10:08:59;100515.91;;;39.82;20.88
60725;BME280;59881;36.722;-4.462;2023-06-14T10:11:26;100563.03;;;38.61;23.67
60725;BME280;59881;36.722;-4.462;2023-06-14T10:13:53;100561.63;;;40.76;22.22
60725;BME280;59881;36.722;-4.462;2023-06-14T13:23:26;100310.94;;;26.75;36.39
60725;BME280;59881;36.722;-4.462;2023-06-14T13:25:51;100299.44;;;27.12;36.14
60725;BME280;59881;36.722;-4.462;2023-06-14T13:28:17;99886.66;;;24.49;36.50
60725;BME280;59881;36.722;-4.462;2023-06-14T13:30:43;100109.03;;;26.07;35.42
60725;BME280;59881;36.722;-4.462;2023-06-14T13:33:09;100607.00;;;28.82;35.36
60725;BME280;59881;36.722;-4.462;2023-06-14T13:35:34;100209.84;;;26.83;35.39
60725;BME280;59881;36.722;-4.462;2023-06-14T13:38:00;100580.28;;;28.85;35.10
60725;BME280;59881;36.722;-4.462;2023-06-14T13:40:26;100472.03;;;28.10;35.64
60725;BME280;59881;36.722;-4.462;2023-06-14T13:42:51;100565.91;;;28.85;35.78
60725;BME280;59881;36.722;-4.462;2023-06-14T13:45:17;100549.03;;;28.64;34.85
60725;BME280;59881;36.722;-4.462;2023-06-14T13:47:43;100583.28;;;28.77;35.87
60725;BME280;59881;36.722;-4.462;2023-06-14T13:50:09;100555.50;;;28.63;36.66
60725;BME280;59881;36.722;-4.462;2023-06-14T13:52:34;100552.47;;;28.53;37.50
60725;BME280;59881;36.722;-4.462;2023-06-14T13:55:00;100591.09;;;28.48;37.46
60725;BME280;59881;36.722;-4.462;2023-06-14T13:57:26;100350.56;;;26.88;37.47
60725;BME280;59881;36.722;-4.462;2023-06-14T13:59:51;100540.84;;;28.46;36.60
60725;BME280;59881;36.722;-4.462;2023-06-14T14:02:21;100578.34;;;28.49;36.61
60725;BME280;59881;36.722;-4.462;2023-06-14T14:04:46;100555.19;;;28.53;36.59
60725;BME280;59881;36.722;-4.462;2023-06-14T14:07:18;100064.84;;;25.11;36.11
60725;BME280;59881;36.722;-4.462;2023-06-14T14:09:45;100325.88;;;26.78;36.55
60725;BME280;59881;36.722;-4.462;2023-06-14T14:12:11;100551.50;;;28.47;36.30
60725;BME280;59881;36.722;-4.462;2023-06-14T14:14:37;100391.81;;;27.09;37.29
60725;BME280;59881;36.722;-4.462;2023-06-14T14:17:02;100336.09;;;26.76;37.33
60725;BME280;59881;36.722;-4.462;2023-06-14T14:19:29;100062.56;;;25.08;37.83
60725;BME280;59881;36.722;-4.462;2023-06-14T14:21:54;100449.28;;;27.36;38.55
60725;BME280;59881;36.722;-4.462;2023-06-14T14:24:20;100583.31;;;28.02;38.86
60725;BME280;59881;36.722;-4.462;2023-06-14T14:26:46;100572.66;;;27.75;39.08
60725;BME280;59881;36.722;-4.462;2023-06-14T14:29:14;100361.81;;;26.40;38.49
60725;BME280;59881;36.722;-4.462;2023-06-14T14:31:39;100191.69;;;25.43;39.49
60725;BME280;59881;36.722;-4.462;2023-06-14T14:34:05;100565.31;;;27.82;39.68
60725;BME280;59881;36.722;-4.462;2023-06-14T14:36:31;99998.06;;;24.15;39.60
60725;BME280;59881;36.722;-4.462;2023-06-14T14:38:56;100062.47;;;24.56;40.16
60725;BME280;59881;36.722;-4.462;2023-06-14T14:41:22;100555.13;;;27.46;40.49
60725;BME280;59881;36.722;-4.462;2023-06-14T14:43:47;100554.34;;;27.39;40.47
60725;BME280;59881;36.722;-4.462;2023-06-14T14:46:13;100557.66;;;27.41;40.34
60725;BME280;59881;36.722;-4.462;2023-06-14T14:48:38;100557.09;;;27.32;40.35
60725;BME280;59881;36.722;-4.462;2023-06-14T14:51:05;100551.09;;;27.23;40.37
60725;BME280;59881;36.722;-4.462;2023-06-14T14:53:31;100372.09;;;25.85;39.82
60725;BME280;59881;36.722;-4.462;2023-06-14T14:55:56;100550.59;;;27.40;40.12
60725;BME280;59881;36.722;-4.462;2023-06-14T14:58:22;100583.63;;;27.49;39.74
60725;BME280;59881;36.722;-4.462;2023-06-14T15:00:47;100103.47;;;24.45;40.28
60725;BME280;59881;36.722;-4.462;2023-06-14T15:03:13;100505.50;;;27.27;40.21
60725;BME280;59881;36.722;-4.462;2023-06-14T15:05:39;100433.63;;;26.61;39.83
60725;BME280;59881;36.722;-4.462;2023-06-14T15:08:05;100443.47;;;26.94;39.58
60725;BME280;59881;36.722;-4.462;2023-06-14T15:10:38;100388.41;;;26.30;39.84
60725;BME280;59881;36.722;-4.462;2023-06-14T15:13:05;100421.66;;;26.37;39.72
60725;BME280;59881;36.722;-4.462;2023-06-14T15:15:32;100549.28;;;27.49;39.39
60725;BME280;59881;36.722;-4.462;2023-06-14T15:17:57;99489.56;;;20.92;40.30
60725;BME280;59881;36.722;-4.462;2023-06-14T15:20:23;100606.75;;;27.44;40.08
60725;BME280;59881;36.722;-4.462;2023-06-14T15:22:48;100599.09;;;27.35;40.23
60725;BME280;59881;36.722;-4.462;2023-06-14T15:25:14;99973.88;;;23.88;40.02
60725;BME280;59881;36.722;-4.462;2023-06-14T15:27:39;100214.28;;;25.49;39.63
60725;BME280;59881;36.722;-4.462;2023-06-14T15:30:05;100146.25;;;23.87;40.46
60725;BME280;59881;36.722;-4.462;2023-06-14T15:32:31;100582.34;;;27.51;40.43
60725;BME280;59881;36.722;-4.462;2023-06-14T15:34:56;100337.13;;;26.30;40.73
60725;BME280;59881;36.722;-4.462;2023-06-14T15:37:22;99819.91;;;22.93;40.78
60725;BME280;59881;36.722;-4.462;2023-06-14T15:39:47;100541.81;;;27.44;41.33
60725;BME280;59881;36.722;-4.462;2023-06-14T15:42:13;100172.88;;;24.90;40.43
60725;BME280;59881;36.722;-4.462;2023-06-14T15:44:38;100153.16;;;25.29;40.42
60725;BME280;59881;36.722;-4.462;2023-06-14T15:47:05;100046.31;;;24.56;40.49
60725;BME280;59881;36.722;-4.462;2023-06-14T15:49:30;100398.69;;;25.94;40.55
60725;BME280;59881;36.722;-4.462;2023-06-14T15:51:56;100460.59;;;26.74;40.85
60725;BME280;59881;36.722;-4.462;2023-06-14T15:54:22;100551.88;;;27.31;41.04
60725;BME280;59881;36.722;-4.462;2023-06-14T15:56:48;100319.84;;;25.59;41.91
60725;BME280;59881;36.722;-4.462;2023-06-14T15:59:13;100257.63;;;24.81;42.40
60725;BME280;59881;36.722;-4.462;2023-06-14T16:01:39;100612.22;;;27.24;41.35
60725;BME280;59881;36.722;-4.462;2023-06-14T16:04:04;100542.28;;;27.35;40.92
60725;BME280;59881;36.722;-4.462;2023-06-14T16:06:30;100533.53;;;27.39;40.82
60725;BME280;59881;36.722;-4.462;2023-06-14T16:08:55;100123.75;;;24.88;40.57
60725;BME280;59881;36.722;-4.462;2023-06-14T16:11:21;100325.00;;;25.80;40.35
60725;BME280;59881;36.722;-4.462;2023-06-14T16:13:46;100438.31;;;26.79;40.22
60725;BME280;59881;36.722;-4.462;2023-06-14T16:16:12;100231.28;;;25.56;39.95
60725;BME280;59881;36.722;-4.462;2023-06-14T16:18:38;100506.56;;;27.19;39.45
60725;BME280;59881;36.722;-4.462;2023-06-14T16:21:03;100545.13;;;27.47;40.03
60725;BME280;59881;36.722;-4.462;2023-06-14T16:23:32;100531.56;;;27.21;41.23
60725;BME280;59881;36.722;-4.462;2023-06-14T16:25:57;100039.28;;;24.02;41.86
60725;BME280;59881;36.722;-4.462;2023-06-14T16:28:23;100511.66;;;26.96;42.04
60725;BME280;59881;36.722;-4.462;2023-06-14T16:30:49;100017.34;;;23.85;42.57
60725;BME280;59881;36.722;-4.462;2023-06-14T16:33:15;100584.56;;;27.16;41.76
60725;BME280;59881;36.722;-4.462;2023-06-14T16:35:40;100538.19;;;27.19;41.84
60725;BME280;59881;36.722;-4.462;2023-06-14T16:38:06;100496.81;;;26.53;41.70
60725;BME280;59881;36.722;-4.462;2023-06-14T16:40:32;100533.44;;;27.08;41.61
60725;BME280;59881;36.722;-4.462;2023-06-14T16:42:58;100102.34;;;23.80;41.63
60725;BME280;59881;36.722;-4.462;2023-06-14T16:45:24;100530.38;;;26.97;41.73
60725;BME280;59881;36.722;-4.462;2023-06-14T16:47:49;100463.56;;;26.53;41.90
60725;BME280;59881;36.722;-4.462;2023-06-14T16:50:15;100490.31;;;26.74;41.76
60725;BME280;59881;36.722;-4.462;2023-06-14T16:52:40;100414.41;;;26.31;42.01
60725;BME280;59881;36.722;-4.462;2023-06-14T16:55:06;100510.38;;;26.98;42.32
60725;BME280;59881;36.722;-4.462;2023-06-14T16:57:32;100489.09;;;26.77;42.35
60725;BME280;59881;36.722;-4.462;2023-06-14T16:59:57;100491.34;;;26.80;42.36
60725;BME280;59881;36.722;-4.462;2023-06-14T17:02:23;100538.41;;;27.17;42.25
60725;BME280;59881;36.722;-4.462;2023-06-14T17:04:48;100542.13;;;27.23;41.83
60725;BME280;59881;36.722;-4.462;2023-06-14T17:07:14;100250.59;;;25.39;42.18
60725;BME280;59881;36.722;-4.462;2023-06-14T17:09:39;100226.75;;;25.23;42.58
60725;BME280;59881;36.722;-4.462;2023-06-14T17:12:05;100549.22;;;27.17;42.60
60725;BME280;59881;36.722;-4.462;2023-06-14T17:14:32;100493.38;;;26.91;42.79
60725;BME280;59881;36.722;-4.462;2023-06-14T17:16:57;100545.28;;;27.13;42.61
60725;BME280;59881;36.722;-4.462;2023-06-14T17:19:23;100292.03;;;25.58;42.52
60725;BME280;59881;36.722;-4.462;2023-06-14T17:21:48;100575.88;;;27.07;42.43
60725;BME280;59881;36.722;-4.462;2023-06-14T17:24:18;100314.69;;;25.57;42.58
60725;BME280;59881;36.722;-4.462;2023-06-14T17:26:43;100487.91;;;26.59;42.27
60725;BME280;59881;36.722;-4.462;2023-06-14T17:29:09;100531.03;;;26.86;42.52
60725;BME280;59881;36.722;-4.462;2023-06-14T17:31:34;100533.31;;;26.89;42.65
60725;BME280;59881;36.722;-4.462;2023-06-14T17:34:00;100243.13;;;25.08;42.70
60725;BME280;59881;36.722;-4.462;2023-06-14T17:36:25;100553.88;;;26.97;42.99
60725;BME280;59881;36.722;-4.462;2023-06-14T17:38:51;100493.06;;;26.61;43.23
60725;BME280;59881;36.722;-4.462;2023-06-14T17:41:20;100530.03;;;26.74;43.12
60725;BME280;59881;36.722;-4.462;2023-06-14T17:43:47;100283.53;;;25.15;43.43
60725;BME280;59881;36.722;-4.462;2023-06-14T17:46:13;100554.75;;;26.77;42.70
60725;BME280;59881;36.722;-4.462;2023-06-14T17:48:38;100454.72;;;26.06;42.64
60725;BME280;59881;36.722;-4.462;2023-06-14T17:51:05;100545.63;;;26.45;43.15
60725;BME280;59881;36.722;-4.462;2023-06-14T17:53:31;100524.06;;;26.18;44.00
60725;BME280;59881;36.722;-4.462;2023-06-14T17:55:57;100612.97;;;26.47;43.83
60725;BME280;59881;36.722;-4.462;2023-06-14T17:58:23;100284.69;;;24.46;43.47
60725;BME280;59881;36.722;-4.462;2023-06-14T18:00:50;100513.91;;;25.94;42.87
60725;BME280;59881;36.722;-4.462;2023-06-14T18:03:15;100478.13;;;25.38;43.09
60725;BME280;59881;36.722;-4.462;2023-06-14T18:05:41;100576.59;;;26.36;43.02
60725;BME280;59881;36.722;-4.462;2023-06-14T18:08:08;100575.34;;;26.38;42.56
60725;BME280;59881;36.722;-4.462;2023-06-14T18:10:34;100583.69;;;26.37;42.26
60725;BME280;59881;36.722;-4.462;2023-06-14T18:13:01;100580.75;;;26.32;42.55
60725;BME280;59881;36.722;-4.462;2023-06-14T18:15:26;100039.88;;;22.53;42.15
60725;BME280;59881;36.722;-4.462;2023-06-14T18:17:53;99962.41;;;22.43;41.97
60725;BME280;59881;36.722;-4.462;2023-06-14T18:20:20;100591.16;;;26.28;41.85
60725;BME280;59881;36.722;-4.462;2023-06-14T18:22:46;100485.44;;;25.65;41.84
60725;BME280;59881;36.722;-4.462;2023-06-14T18:25:13;100256.41;;;24.15;42.26
60725;BME280;59881;36.722;-4.462;2023-06-14T18:27:44;100388.78;;;24.73;41.82
60725;BME280;59881;36.722;-4.462;2023-06-14T18:30:11;100599.03;;;26.10;41.72
60725;BME280;59881;36.722;-4.462;2023-06-14T18:32:36;100391.25;;;24.75;41.95
60725;BME280;59881;36.722;-4.462;2023-06-14T18:35:02;100400.53;;;24.59;41.58
60725;BME280;59881;36.722;-4.462;2023-06-14T18:37:28;100606.31;;;26.02;41.56
60725;BME280;59881;36.722;-4.462;2023-06-14T18:39:54;100597.78;;;25.99;40.94
60725;BME280;59881;36.722;-4.462;2023-06-14T18:42:20;100204.56;;;23.45;41.12
60725;BME280;59881;36.722;-4.462;2023-06-14T18:44:49;100611.47;;;25.91;40.85
60725;BME280;59881;36.722;-4.462;2023-06-14T18:47:15;100671.63;;;25.85;40.77
60725;BME280;59881;36.722;-4.462;2023-06-14T18:49:41;100605.59;;;25.80;40.16
60725;BME280;59881;36.722;-4.462;2023-06-14T18:52:07;100475.72;;;24.95;39.99
60725;BME280;59881;36.722;-4.462;2023-06-14T18:54:33;100613.69;;;25.74;39.47
60725;BME280;59881;36.722;-4.462;2023-06-14T18:56:59;100133.88;;;22.60;39.25
60725;BME280;59881;36.722;-4.462;2023-06-14T18:59:25;100407.03;;;24.36;39.39
60725;BME280;59881;36.722;-4.462;2023-06-14T19:01:51;100365.66;;;24.03;38.74
60725;BME280;59881;36.722;-4.462;2023-06-14T19:04:17;100272.00;;;23.22;38.71
60725;BME280;59881;36.722;-4.462;2023-06-14T19:06:42;100255.59;;;23.10;38.25
60725;BME280;59881;36.722;-4.462;2023-06-14T19:09:08;100224.22;;;23.17;38.15
60725;BME280;59881;36.722;-4.462;2023-06-14T19:11:33;100631.47;;;25.55;37.99
60725;BME280;59881;36.722;-4.462;2023-06-14T19:13:59;100220.97;;;23.00;37.92
60725;BME280;59881;36.722;-4.462;2023-06-14T19:16:25;100632.94;;;25.51;37.72
